createdAt,value
2023-04-02T00:02:33.704Z,9.65
2023-04-02T00:05:50.935Z,9.20
2023-04-02T00:08:56.294Z,8.52
2023-04-02T00:12:00.417Z,9.38
2023-04-02T00:15:02.209Z,6.97
2023-04-02T00:18:05.016Z,14.38
2023-04-02T00:21:34.614Z,7.18
2023-04-02T00:24:39.273Z,8.18
2023-04-02T00:27:41.495Z,7.87
2023-04-02T00:31:01.500Z,7.22
2023-04-02T00:34:04.926Z,8.75
2023-04-02T00:37:06.968Z,8.65
2023-04-02T00:40:25.983Z,6.85
2023-04-02T00:43:30.872Z,6.50
2023-04-02T00:46:48.424Z,8.30
2023-04-02T00:50:01.375Z,8.23
2023-04-02T00:53:14.877Z,4.85
2023-04-02T00:56:44.380Z,5.07
2023-04-02T00:59:57.246Z,6.07
2023-04-02T01:03:30.459Z,7.28
2023-04-02T01:06:37.280Z,6.05
2023-04-02T01:10:08.145Z,5.40
2023-04-02T01:13:34.892Z,5.25
2023-04-02T01:16:50.480Z,6.35
2023-04-02T01:20:10.344Z,4.43
2023-04-02T01:23:36.572Z,5.20
2023-04-02T01:26:57.945Z,4.75
2023-04-02T01:30:01.698Z,4.97
2023-04-02T01:33:04.071Z,3.70
2023-04-02T01:36:08.532Z,5.72
2023-04-02T01:39:24.591Z,6.60
2023-04-02T01:42:57.212Z,3.97
2023-04-02T01:46:00.332Z,5.65
2023-04-02T01:49:11.337Z,5.05
2023-04-02T01:52:19.394Z,3.80
2023-04-02T01:55:33.086Z,3.83
2023-04-02T01:58:35.805Z,3.50
2023-04-02T02:01:46.213Z,4.53
2023-04-02T02:04:48.754Z,3.37
2023-04-02T02:07:52.080Z,3.92
2023-04-02T02:10:54.011Z,4.47
2023-04-02T02:14:05.427Z,3.33
2023-04-02T02:17:13.475Z,3.62
2023-04-02T02:20:16.344Z,6.35
2023-04-02T02:23:19.515Z,10.02
2023-04-02T02:26:23.975Z,6.25
2023-04-02T02:29:28.482Z,3.37
2023-04-02T02:32:33.194Z,3.85
2023-04-02T02:35:54.727Z,2.97
2023-04-02T02:38:58.377Z,3.72
2023-04-02T02:42:12.005Z,3.47
2023-04-02T02:45:18.049Z,2.72
2023-04-02T02:48:34.245Z,2.53
2023-04-02T02:51:50.343Z,2.20
2023-04-02T02:54:59.412Z,5.75
2023-04-02T02:58:32.450Z,3.05
2023-04-02T03:01:34.369Z,3.62
2023-04-02T03:04:36.385Z,2.37
2023-04-02T03:07:38.430Z,5.62
2023-04-02T03:10:48.699Z,2.47
2023-04-02T03:13:54.665Z,2.35
2023-04-02T03:17:09.111Z,2.05
2023-04-02T03:20:17.780Z,2.78
2023-04-02T03:23:46.264Z,2.62
2023-04-02T03:30:25.774Z,2.00
2023-04-02T03:33:29.837Z,2.83
2023-04-02T03:36:43.804Z,2.55
2023-04-02T03:40:08.978Z,3.55
2023-04-02T03:43:26.053Z,4.12
2023-04-02T03:47:32.844Z,3.80
2023-04-02T03:51:07.099Z,2.40
2023-04-02T03:54:16.094Z,2.15
2023-04-02T03:57:38.599Z,2.00
2023-04-02T04:00:51.934Z,2.60
2023-04-02T04:03:56.019Z,3.58
2023-04-02T04:07:00.762Z,2.92
2023-04-02T04:10:04.619Z,7.12
2023-04-02T04:13:12.536Z,6.37
2023-04-02T04:16:20.089Z,7.85
2023-04-02T04:22:33.781Z,18.08
2023-04-02T04:25:37.311Z,8.77
2023-04-02T04:28:57.272Z,3.65
2023-04-02T04:32:16.934Z,2.12
2023-04-02T04:35:28.753Z,5.12
2023-04-02T04:38:40.854Z,2.40
2023-04-02T04:41:43.767Z,3.47
2023-04-02T04:44:53.662Z,3.05
2023-04-02T04:48:00.419Z,3.90
2023-04-02T04:51:37.702Z,15.05
2023-04-02T04:54:39.856Z,50.55
2023-04-02T04:57:42.887Z,52.97
2023-04-02T05:00:56.869Z,45.78
2023-04-02T05:04:11.151Z,57.47
2023-04-02T05:07:27.813Z,22.75
2023-04-02T05:10:42.412Z,10.77
2023-04-02T05:14:16.483Z,8.07
2023-04-02T05:17:33.862Z,7.97
2023-04-02T05:20:48.176Z,5.10
2023-04-02T05:24:25.032Z,3.80
2023-04-02T05:27:44.753Z,39.30
2023-04-02T05:31:28.059Z,10.05
2023-04-02T05:34:37.375Z,6.95
2023-04-02T05:37:39.976Z,7.05
2023-04-02T05:40:46.392Z,6.12
2023-04-02T05:43:51.336Z,6.53
2023-04-02T05:47:07.110Z,5.62
2023-04-02T05:50:09.590Z,5.12
2023-04-02T05:53:20.936Z,7.30
2023-04-02T05:56:31.992Z,3.90
2023-04-02T05:59:48.995Z,4.22
2023-04-02T06:03:07.403Z,4.03
2023-04-02T06:06:20.732Z,3.60
2023-04-02T06:09:22.327Z,4.05
2023-04-02T06:12:47.542Z,14.45
2023-04-02T06:15:49.494Z,7.60
2023-04-02T06:18:51.390Z,6.18
2023-04-02T06:22:00.629Z,3.67
2023-04-02T06:25:08.972Z,4.15
2023-04-02T06:28:17.961Z,3.12
2023-04-02T06:31:35.988Z,2.08
2023-04-02T06:37:46.171Z,2.92
2023-04-02T06:40:53.253Z,1.90
2023-04-02T06:44:00.171Z,3.10
2023-04-02T06:47:13.176Z,1.77
2023-04-02T06:50:39.712Z,2.95
2023-04-02T06:53:47.643Z,1.77
2023-04-02T06:56:54.195Z,2.12
2023-04-02T06:59:55.941Z,1.47
2023-04-02T07:03:00.917Z,2.55
2023-04-02T07:06:03.561Z,2.05
2023-04-02T07:09:05.637Z,2.25
2023-04-02T07:12:13.891Z,2.17
2023-04-02T07:15:19.868Z,3.83
2023-04-02T07:18:30.790Z,2.08
2023-04-02T07:21:32.557Z,2.87
2023-04-02T07:24:34.188Z,2.30
2023-04-02T07:27:36.331Z,6.75
2023-04-02T07:30:38.053Z,2.03
2023-04-02T07:33:41.184Z,1.52
2023-04-02T07:36:43.775Z,1.85
2023-04-02T07:39:45.596Z,8.70
2023-04-02T07:42:47.706Z,2.53
2023-04-02T07:45:51.490Z,8.00
2023-04-02T07:48:53.227Z,2.37
2023-04-02T07:51:54.893Z,1.70
2023-04-02T07:54:56.564Z,3.30
2023-04-02T07:57:59.981Z,2.42
2023-04-02T08:01:04.542Z,4.28
2023-04-02T08:04:07.902Z,7.20
2023-04-02T08:07:09.639Z,2.80
2023-04-02T08:10:12.493Z,3.40
2023-04-02T08:13:16.228Z,2.37
2023-04-02T08:16:18.062Z,2.58
2023-04-02T08:19:20.097Z,2.08
2023-04-02T08:22:21.756Z,7.28
2023-04-02T08:25:23.734Z,1.85
2023-04-02T08:28:25.402Z,3.37
2023-04-02T08:31:27.618Z,3.10
2023-04-02T08:34:29.461Z,2.40
2023-04-02T08:37:31.088Z,1.52
2023-04-02T08:40:38.978Z,3.15
2023-04-02T08:43:40.973Z,1.73
2023-04-02T08:46:55.733Z,3.85
2023-04-02T08:50:15.387Z,1.73
2023-04-02T08:53:24.815Z,2.20
2023-04-02T08:56:37.057Z,2.53
2023-04-02T08:59:40.901Z,2.10
2023-04-02T09:02:50.779Z,2.15
2023-04-02T09:05:53.513Z,1.45
2023-04-02T09:08:56.941Z,3.30
2023-04-02T09:12:04.291Z,3.95
2023-04-02T09:15:18.563Z,2.12
2023-04-02T09:18:21.004Z,1.90
2023-04-02T09:21:40.574Z,2.35
2023-04-02T09:24:42.189Z,2.17
2023-04-02T09:27:48.827Z,1.65
2023-04-02T09:31:16.129Z,5.65
2023-04-02T09:34:36.156Z,2.70
2023-04-02T09:37:37.784Z,1.92
2023-04-02T09:40:51.137Z,2.37
2023-04-02T09:44:12.279Z,1.52
2023-04-02T09:47:27.307Z,3.05
2023-04-02T09:50:32.136Z,2.30
2023-04-02T09:53:36.853Z,3.00
2023-04-02T09:56:40.550Z,6.40
2023-04-02T09:59:42.183Z,2.15
2023-04-02T10:02:45.962Z,3.20
2023-04-02T10:05:48.843Z,3.03
2023-04-02T10:08:51.685Z,2.55
2023-04-02T10:11:55.194Z,2.70
2023-04-02T10:14:59.689Z,2.08
2023-04-02T10:18:16.546Z,4.62
2023-04-02T10:21:38.659Z,1.92
2023-04-02T10:24:40.713Z,2.50
2023-04-02T10:27:55.884Z,1.70
2023-04-02T10:31:11.359Z,3.30
2023-04-02T10:34:24.883Z,2.42
2023-04-02T10:37:45.780Z,2.15
2023-04-02T10:41:03.056Z,2.22
2023-04-02T10:44:49.708Z,3.65
2023-04-02T10:47:58.204Z,5.65
2023-04-02T10:51:02.593Z,8.23
2023-04-02T10:54:33.873Z,1.65
2023-04-02T10:57:43.364Z,5.30
2023-04-02T11:00:47.390Z,6.65
2023-04-02T11:03:57.818Z,7.85
2023-04-02T11:07:17.640Z,2.53
2023-04-02T11:10:21.159Z,1.92
2023-04-02T11:13:49.302Z,1.52
2023-04-02T11:16:53.179Z,8.68
2023-04-02T11:19:56.672Z,2.15
2023-04-02T11:23:27.970Z,1.67
2023-04-02T11:26:47.497Z,2.83
2023-04-02T11:30:08.238Z,3.03
2023-04-02T11:33:38.414Z,1.77
2023-04-02T11:36:51.059Z,2.90
2023-04-02T11:39:55.230Z,2.10
2023-04-02T11:43:38.156Z,2.22
2023-04-02T11:46:42.418Z,1.52
2023-04-02T11:50:01.306Z,0.73
2023-04-02T11:53:28.622Z,2.67
2023-04-02T11:56:52.410Z,0.60
2023-04-02T12:00:08.728Z,1.23
2023-04-02T12:03:36.765Z,1.50
2023-04-02T12:06:47.373Z,1.65
2023-04-02T12:09:55.706Z,1.02
2023-04-02T12:12:57.516Z,1.27
2023-04-02T12:15:59.499Z,1.65
2023-04-02T12:19:01.860Z,1.33
2023-04-02T12:22:03.808Z,0.98
2023-04-02T12:25:22.416Z,0.95
2023-04-02T12:28:25.237Z,0.68
2023-04-02T12:31:27.532Z,1.45
2023-04-02T12:34:30.313Z,1.62
2023-04-02T12:37:32.843Z,0.75
2023-04-02T12:40:34.818Z,1.12
2023-04-02T12:43:38.069Z,5.03
2023-04-02T12:46:41.053Z,3.80
2023-04-02T12:49:44.091Z,1.77
2023-04-02T12:52:55.733Z,2.22
2023-04-02T12:55:57.514Z,4.07
2023-04-02T12:59:01.414Z,3.33
2023-04-02T13:02:18.584Z,4.95
2023-04-02T13:05:56.996Z,5.70
2023-04-02T13:09:01.727Z,8.85
2023-04-02T13:12:03.815Z,1.40
2023-04-02T13:15:20.900Z,1.98
2023-04-02T13:18:23.480Z,3.90
2023-04-02T13:21:31.721Z,3.78
2023-04-02T13:24:34.142Z,1.85
2023-04-02T13:27:36.001Z,1.40
2023-04-02T13:30:37.900Z,2.65
2023-04-02T13:33:39.741Z,3.83
2023-04-02T13:36:41.412Z,1.17
2023-04-02T13:39:44.464Z,2.15
2023-04-02T13:42:47.686Z,2.50
2023-04-02T13:45:52.440Z,2.90
2023-04-02T13:48:55.430Z,5.93
2023-04-02T13:52:03.521Z,3.75
2023-04-02T13:55:06.163Z,3.20
2023-04-02T13:58:09.665Z,3.45
2023-04-02T14:01:12.588Z,1.77
2023-04-02T14:04:22.352Z,1.25
2023-04-02T14:07:47.810Z,1.12
2023-04-02T14:11:28.547Z,16.83
2023-04-02T14:14:45.098Z,5.15
2023-04-02T14:18:12.016Z,2.08
2023-04-02T14:21:32.769Z,3.42
2023-04-02T14:24:48.862Z,1.75
2023-04-02T14:28:28.181Z,3.92
2023-04-02T14:31:34.152Z,5.18
2023-04-02T14:34:41.773Z,3.50
2023-04-02T14:37:59.032Z,2.03
2023-04-02T14:41:10.804Z,2.30
2023-04-02T14:44:13.392Z,3.97
2023-04-02T14:47:24.579Z,2.85
2023-04-02T14:50:41.431Z,2.97
2023-04-02T14:54:15.364Z,12.02
2023-04-02T14:57:26.451Z,1.60
2023-04-02T15:00:44.243Z,1.05
2023-04-02T15:03:55.081Z,1.73
2023-04-02T15:07:03.259Z,2.60
2023-04-02T15:10:20.829Z,3.35
2023-04-02T15:16:33.156Z,12.75
2023-04-02T15:19:35.193Z,9.82
2023-04-02T15:23:03.800Z,17.60
2023-04-02T15:26:20.315Z,5.05
2023-04-02T15:29:37.196Z,3.75
2023-04-02T15:32:40.890Z,2.95
2023-04-02T15:35:58.416Z,1.67
2023-04-02T15:39:28.535Z,4.28
2023-04-02T15:42:46.171Z,2.28
2023-04-02T15:46:07.944Z,1.08
2023-04-02T15:49:26.441Z,1.92
2023-04-02T15:52:47.375Z,2.72
2023-04-02T15:56:11.576Z,1.27
2023-04-02T15:59:19.412Z,1.55
2023-04-02T16:02:51.728Z,9.32
2023-04-02T16:06:17.171Z,3.67
2023-04-02T16:09:47.948Z,3.17
2023-04-02T16:12:52.667Z,5.55
2023-04-02T16:16:22.808Z,17.92
2023-04-02T16:19:40.018Z,7.25
2023-04-02T16:23:00.018Z,4.20
2023-04-02T16:26:24.369Z,2.12
2023-04-02T16:29:37.967Z,2.28
2023-04-02T16:33:00.306Z,15.50
2023-04-02T16:36:46.468Z,25.45
2023-04-02T16:39:55.080Z,3.15
2023-04-02T16:43:07.652Z,34.50
2023-04-02T16:46:38.164Z,5.82
2023-04-02T16:49:48.864Z,7.25
2023-04-02T16:53:35.492Z,6.53
2023-04-02T16:56:53.228Z,4.25
2023-04-02T17:00:36.706Z,4.68
2023-04-02T17:04:04.111Z,3.22
2023-04-02T17:07:18.577Z,3.28
2023-04-02T17:10:31.388Z,3.85
2023-04-02T17:14:06.468Z,3.15
2023-04-02T17:17:15.198Z,4.35
2023-04-02T17:20:25.218Z,4.97
2023-04-02T17:23:30.475Z,5.22
2023-04-02T17:26:38.011Z,3.90
2023-04-02T17:32:45.486Z,4.75
2023-04-02T17:36:06.643Z,6.80
2023-04-02T17:39:36.215Z,3.60
2023-04-02T17:43:07.653Z,5.20
2023-04-02T17:46:35.490Z,4.72
2023-04-02T17:50:15.347Z,5.78
2023-04-02T17:53:39.644Z,6.25
2023-04-02T17:57:29.961Z,19.12
2023-04-02T18:01:03.104Z,14.57
2023-04-02T18:04:28.674Z,11.00
2023-04-02T18:07:55.053Z,17.15
2023-04-02T18:11:01.073Z,11.02
2023-04-02T18:14:11.863Z,7.03
2023-04-02T18:17:26.502Z,5.18
2023-04-02T18:20:52.513Z,6.85
2023-04-02T18:23:54.992Z,5.68
2023-04-02T18:26:58.265Z,4.28
2023-04-02T18:30:04.325Z,11.27
2023-04-02T18:33:45.205Z,8.38
2023-04-02T18:37:09.934Z,13.23
2023-04-02T18:40:39.686Z,49.28
2023-04-02T18:44:02.672Z,27.83
2023-04-02T18:47:30.599Z,24.50
2023-04-02T18:50:44.966Z,17.73
2023-04-02T18:53:49.780Z,19.10
2023-04-02T18:56:52.361Z,22.25
2023-04-02T19:00:03.207Z,11.90
2023-04-02T19:03:37.405Z,7.12
2023-04-02T19:06:45.028Z,5.32
2023-04-02T19:09:50.045Z,2.92
2023-04-02T19:12:52.656Z,6.35
2023-04-02T19:15:56.469Z,3.62
2023-04-02T19:19:11.742Z,4.00
2023-04-02T19:22:30.816Z,4.07
2023-04-02T19:25:51.818Z,4.53
2023-04-02T19:29:25.730Z,3.05
2023-04-02T19:33:04.249Z,2.78
2023-04-02T19:36:28.254Z,4.78
2023-04-02T19:39:58.070Z,2.40
2023-04-02T19:43:03.346Z,4.72
2023-04-02T19:46:11.182Z,2.40
2023-04-02T19:49:23.278Z,2.40
2023-04-02T19:52:26.514Z,3.42
2023-04-02T19:55:29.613Z,3.78
2023-04-02T19:58:35.046Z,3.72
2023-04-02T20:01:37.614Z,3.25
2023-04-02T20:04:40.217Z,2.30
2023-04-02T20:07:42.729Z,3.17
2023-04-02T20:10:45.979Z,2.12
2023-04-02T20:13:52.517Z,2.67
2023-04-02T20:16:55.297Z,1.80
2023-04-02T20:19:57.900Z,2.03
2023-04-02T20:23:02.440Z,1.27
2023-04-02T20:26:06.280Z,1.37
2023-04-02T20:29:08.849Z,1.40
2023-04-02T20:32:11.066Z,2.08
2023-04-02T20:35:13.740Z,1.62
2023-04-02T20:38:16.037Z,1.73
2023-04-02T20:41:19.465Z,0.70
2023-04-02T20:44:22.058Z,0.68
2023-04-02T20:47:23.916Z,0.80
2023-04-02T20:50:25.852Z,1.05
2023-04-02T20:53:32.980Z,1.15
2023-04-02T20:56:34.857Z,2.12
2023-04-02T20:59:36.541Z,1.00
2023-04-02T21:02:38.328Z,2.10
2023-04-02T21:05:44.720Z,1.00
2023-04-02T21:08:47.660Z,0.90
2023-04-02T21:11:49.966Z,2.78
2023-04-02T21:14:57.069Z,1.00
2023-04-02T21:17:58.867Z,1.00
2023-04-02T21:21:03.226Z,0.73
2023-04-02T21:24:07.357Z,1.27
2023-04-02T21:27:09.015Z,0.80
2023-04-02T21:30:11.238Z,1.52
2023-04-02T21:33:12.950Z,1.42
2023-04-02T21:36:20.029Z,0.95
2023-04-02T21:39:23.860Z,2.30
2023-04-02T21:42:26.240Z,1.35
2023-04-02T21:45:28.335Z,0.80
2023-04-02T21:48:31.538Z,1.00
2023-04-02T21:51:34.428Z,1.12
2023-04-02T21:54:36.090Z,2.83
2023-04-02T21:57:37.961Z,1.35
2023-04-02T22:00:39.715Z,2.00
2023-04-02T22:03:41.408Z,1.25
2023-04-02T22:06:44.380Z,1.20
2023-04-02T22:09:46.000Z,1.20
2023-04-02T22:12:47.664Z,5.15
2023-04-02T22:15:49.437Z,4.20
2023-04-02T22:18:52.605Z,2.00
2023-04-02T22:21:54.308Z,1.30
2023-04-02T22:24:56.470Z,1.15
2023-04-02T22:27:58.158Z,1.60
2023-04-02T22:31:20.626Z,1.10
2023-04-02T22:34:22.372Z,2.28
2023-04-02T22:37:24.255Z,1.65
2023-04-02T22:40:25.997Z,1.20
2023-04-02T22:43:27.759Z,1.60
2023-04-02T22:46:30.413Z,1.35
2023-04-02T22:49:32.403Z,1.70
2023-04-02T22:52:34.041Z,4.00
2023-04-02T22:55:35.939Z,4.03
2023-04-02T22:58:38.401Z,2.90
2023-04-02T23:01:40.877Z,2.50
2023-04-02T23:04:42.860Z,1.90
2023-04-02T23:07:44.560Z,1.60
2023-04-02T23:10:46.349Z,1.70
2023-04-02T23:13:50.582Z,3.45
2023-04-02T23:16:52.245Z,6.28
2023-04-02T23:19:53.856Z,4.62
2023-04-02T23:22:55.755Z,7.40
2023-04-02T23:26:18.885Z,4.30
2023-04-02T23:29:20.529Z,4.97
2023-04-02T23:32:22.762Z,3.67
2023-04-02T23:35:24.698Z,2.60
2023-04-02T23:38:27.070Z,3.17
2023-04-02T23:41:30.510Z,4.25
2023-04-02T23:44:32.249Z,3.70
2023-04-02T23:47:33.934Z,2.33
2023-04-02T23:50:35.977Z,1.95
2023-04-02T23:53:37.756Z,2.87
2023-04-02T23:56:39.967Z,2.20
2023-04-02T23:59:41.706Z,2.22
